Time;durP1;ratioP1;P1;durP2;ratioP2;P2;SDS_P1;SDS_P2;PMS_P1;PMS_P2;Temp;Humidity;BMP_temperature;BMP_pressure;BME280_temperature;BME280_humidity;BME280_pressure;Samples;Min_cycle;Max_cycle;Signal;HPM_P1;HPM_P2
2021/12/18 00:00:43;;;;;;;27.90;20.40;;;;;;;0.48;100.00;94753.72;2082650;28;20022;-86
2021/12/18 00:01:44;;;;;;;30.65;20.77;;;;;;;0.48;100.00;94753.72;2088311;28;20382;-88
2021/12/18 00:02:46;;;;;;;26.58;20.58;;;;;;;0.53;100.00;94747.53;2090671;28;20127;-88
2021/12/18 00:03:47;;;;;;;26.63;19.60;;;;;;;0.57;100.00;94750.28;2090775;28;20035;-85
2021/12/18 00:04:48;;;;;;;27.75;20.40;;;;;;;0.68;100.00;94751.53;2082371;28;20030;-85
2021/12/18 00:05:53;;;;;;;26.52;19.65;;;;;;;0.64;100.00;94747.97;2082433;28;20525;-84
2021/12/18 00:07:01;;;;;;;26.58;19.80;;;;;;;0.52;100.00;94745.19;2091968;28;20075;-86
2021/12/18 00:08:04;;;;;;;28.00;19.95;;;;;;;0.55;100.00;94742.72;2098848;28;20033;-87
2021/12/18 00:09:10;;;;;;;26.65;20.02;;;;;;;0.54;100.00;94746.44;2083219;28;20116;-87
2021/12/18 00:10:11;;;;;;;30.70;20.80;;;;;;;0.52;100.00;94745.19;2083605;28;20048;-86
2021/12/18 00:11:13;;;;;;;26.98;19.77;;;;;;;0.56;100.00;94743.50;2082448;28;20157;-88
2021/12/18 00:12:14;;;;;;;27.23;19.90;;;;;;;0.59;100.00;94750.78;2082460;28;20025;-89
2021/12/18 00:13:16;;;;;;;29.05;20.38;;;;;;;0.48;100.00;94739.78;2082899;28;20556;-87
2021/12/18 00:14:18;;;;;;;28.55;20.75;;;;;;;0.42;100.00;94744.44;2090834;28;20355;-85
2021/12/18 00:15:21;;;;;;;25.90;19.23;;;;;;;0.46;100.00;94748.00;2083070;28;20467;-89
2021/12/18 00:16:23;;;;;;;29.25;19.35;;;;;;;0.39;100.00;94744.28;2082728;28;20049;-86
2021/12/18 00:17:24;;;;;;;28.13;20.27;;;;;;;0.61;100.00;94740.69;2087699;28;20101;-87
2021/12/18 00:18:25;;;;;;;27.13;19.50;;;;;;;0.47;100.00;94741.66;2090524;28;20028;-88
2021/12/18 00:19:30;;;;;;;27.92;20.17;;;;;;;0.52;100.00;94739.94;2090915;28;20621;-87
2021/12/18 00:20:31;;;;;;;28.50;20.75;;;;;;;0.38;100.00;94745.38;2090842;28;20155;-86
2021/12/18 00:21:36;;;;;;;27.30;19.95;;;;;;;0.39;100.00;94747.69;2089668;28;20025;-87
2021/12/18 00:22:37;;;;;;;26.83;19.20;;;;;;;0.38;100.00;94743.50;2091224;28;20032;-85
2021/12/18 00:23:44;;;;;;;28.40;20.35;;;;;;;0.50;100.00;94742.88;2082576;28;20096;-87
2021/12/18 00:24:45;;;;;;;26.65;19.67;;;;;;;0.38;100.00;94737.47;2084005;28;20048;-85
2021/12/18 00:25:46;;;;;;;25.70;18.90;;;;;;;0.36;100.00;94737.03;2082306;28;20021;-87
2021/12/18 00:26:47;;;;;;;28.63;20.75;;;;;;;0.29;100.00;94740.13;2090885;28;20028;-89
2021/12/18 00:27:49;;;;;;;27.77;20.38;;;;;;;0.31;100.00;94737.16;2098543;28;20653;-85
2021/12/18 00:28:50;;;;;;;28.20;19.88;;;;;;;0.35;100.00;94738.09;2082688;28;20018;-87
2021/12/18 00:29:51;;;;;;;28.08;19.38;;;;;;;0.31;100.00;94734.53;2089943;28;20029;-88
2021/12/18 00:30:52;;;;;;;27.67;20.00;;;;;;;0.24;100.00;94733.16;2082101;28;20469;-88
2021/12/18 00:31:53;;;;;;;27.90;20.95;;;;;;;0.23;100.00;94738.75;2074213;28;20025;-85
2021/12/18 00:32:55;;;;;;;26.42;19.95;;;;;;;0.32;100.00;94739.50;2074298;28;20025;-86
2021/12/18 00:33:56;;;;;;;29.48;20.30;;;;;;;0.42;100.00;94735.78;2082404;28;20490;-86
2021/12/18 00:34:57;;;;;;;28.77;20.83;;;;;;;0.32;100.00;94731.63;2092553;28;20503;-89
2021/12/18 00:35:58;;;;;;;28.33;21.08;;;;;;;0.41;100.00;94742.13;2089149;28;20027;-86
2021/12/18 00:37:19;;;;;;;31.15;20.67;;;;;;;0.41;100.00;94734.25;2090629;28;20069;-86
2021/12/18 00:38:27;;;;;;;28.85;21.42;;;;;;;0.33;100.00;94735.00;2096263;28;20058;-87
2021/12/18 00:39:31;;;;;;;26.33;19.02;;;;;;;0.38;100.00;94730.34;2090370;28;20025;-89
2021/12/18 00:40:46;;;;;;;28.35;19.35;;;;;;;0.30;100.00;94733.75;2087094;28;20478;-86
2021/12/18 00:41:59;;;;;;;24.10;18.70;;;;;;;0.37;100.00;94723.56;2090261;28;20029;-90
2021/12/18 00:43:35;;;;;;;25.60;19.08;;;;;;;0.41;100.00;94728.97;2085700;28;20025;-87
2021/12/18 00:44:43;;;;;;;28.27;20.13;;;;;;;0.24;100.00;94729.75;2091605;28;20493;-89
2021/12/18 00:45:47;;;;;;;25.88;18.75;;;;;;;0.15;100.00;94723.72;2088375;28;20024;-85
2021/12/18 00:47:14;;;;;;;29.98;20.13;;;;;;;0.28;100.00;94722.78;2082970;28;20029;-86
2021/12/18 00:48:21;;;;;;;27.05;19.23;;;;;;;0.37;100.00;94718.31;2089850;28;20025;-87
2021/12/18 00:49:35;;;;;;;30.13;20.20;;;;;;;0.17;100.00;94711.03;2082450;28;20054;-88
2021/12/18 00:50:36;;;;;;;29.58;21.17;;;;;;;0.24;100.00;94724.50;2092553;28;20106;-89
2021/12/18 00:51:37;;;;;;;29.73;20.35;;;;;;;0.28;100.00;94720.16;2082276;28;20055;-88
2021/12/18 00:52:38;;;;;;;29.02;20.00;;;;;;;0.29;100.00;94716.44;2074264;28;20474;-89
2021/12/18 00:53:39;;;;;;;27.92;20.30;;;;;;;0.17;100.00;94717.06;2074258;28;20025;-89
2021/12/18 00:54:42;;;;;;;31.83;21.52;;;;;;;0.16;100.00;94720.00;2074138;28;20022;-86
2021/12/18 00:55:44;;;;;;;28.88;21.38;;;;;;;0.09;100.00;94720.50;2082630;28;20025;-88
2021/12/18 00:56:45;;;;;;;30.67;21.42;;;;;;;0.17;100.00;94713.66;2090435;28;20493;-87
2021/12/18 00:57:50;;;;;;;32.67;22.52;;;;;;;0.11;100.00;94709.66;2081985;28;20037;-87
2021/12/18 00:58:51;;;;;;;30.05;20.73;;;;;;;0.10;100.00;94714.16;2082735;28;20037;-88
2021/12/18 00:59:58;;;;;;;31.83;22.63;;;;;;;0.07;100.00;94712.13;2090258;28;20488;-87
2021/12/18 01:00:59;;;;;;;28.83;21.17;;;;;;;0.19;100.00;94716.78;2075658;28;20022;-85
2021/12/18 01:02:00;;;;;;;31.00;21.23;;;;;;;0.15;100.00;94707.97;2075310;28;20052;-87
2021/12/18 01:03:18;;;;;;;28.80;20.35;;;;;;;0.23;100.00;94705.31;2082257;28;20045;-87
2021/12/18 01:04:26;;;;;;;27.75;20.73;;;;;;;0.16;100.00;94714.75;2086592;28;20030;-86
2021/12/18 01:05:34;;;;;;;28.90;20.10;;;;;;;0.21;100.00;94706.72;2084133;28;20107;-87
2021/12/18 01:06:35;;;;;;;27.98;20.08;;;;;;;0.06;100.00;94707.97;2092277;28;20429;-85
2021/12/18 01:07:37;;;;;;;26.50;18.92;;;;;;;0.14;100.00;94706.41;2098150;28;20107;-86
2021/12/18 01:08:38;;;;;;;25.35;19.58;;;;;;;0.15;100.00;94711.34;2090376;28;20104;-86
2021/12/18 01:11:24;;;;;;;31.13;20.70;;;;;;;0.03;100.00;94711.19;2102606;28;20138;-85
2021/12/18 01:12:32;;;;;;;26.55;19.17;;;;;;;0.06;100.00;94702.69;2107197;28;20030;-86
2021/12/18 01:13:41;;;;;;;28.75;20.30;;;;;;;0.22;100.00;94703.78;2106752;28;20036;-89
2021/12/18 01:15:08;;;;;;;26.20;19.70;;;;;;;0.28;100.00;94695.72;2092547;28;20021;-88
2021/12/18 01:16:17;;;;;;;28.30;19.80;;;;;;;0.11;100.00;94697.28;2089350;28;20477;-89
2021/12/18 01:22:48;;;;;;;28.65;20.83;;;;;;;0.07;100.00;94693.72;2109692;28;20019;-88
2021/12/18 01:23:56;;;;;;;27.75;19.80;;;;;;;0.08;100.00;94691.88;2098597;28;20109;-86
2021/12/18 01:25:02;;;;;;;27.95;20.33;;;;;;;-0.01;100.00;94695.25;2091935;28;20112;-86
2021/12/18 01:26:04;;;;;;;28.33;19.90;;;;;;;0.02;100.00;94698.38;2091487;28;20548;-88
2021/12/18 01:27:05;;;;;;;29.88;20.15;;;;;;;0.04;100.00;94694.34;2090251;28;20075;-89
2021/12/18 01:28:06;;;;;;;30.10;20.75;;;;;;;-0.07;100.00;94701.00;2089977;28;20478;-87
2021/12/18 01:29:07;;;;;;;29.67;20.50;;;;;;;0.00;100.00;94701.31;2090126;28;20021;-87
2021/12/18 01:30:11;;;;;;;29.05;21.35;;;;;;;-0.05;100.00;94702.22;2098082;28;20834;-86
2021/12/18 01:31:12;;;;;;;28.02;20.52;;;;;;;0.09;100.00;94699.47;2098721;28;20396;-91
2021/12/18 01:32:14;;;;;;;29.58;20.70;;;;;;;0.10;100.00;94702.84;2090105;28;20039;-86
2021/12/18 01:33:15;;;;;;;29.80;20.27;;;;;;;0.06;100.00;94705.31;2090200;28;20025;-87
2021/12/18 01:34:16;;;;;;;30.08;21.15;;;;;;;0.15;100.00;94710.59;2090243;28;20067;-86
2021/12/18 01:35:18;;;;;;;31.10;20.40;;;;;;;0.15;100.00;94705.31;2090161;28;20118;-88
2021/12/18 01:36:21;;;;;;;29.58;20.70;;;;;;;0.08;100.00;94707.63;2098359;28;20024;-88
2021/12/18 01:37:22;;;;;;;30.00;20.92;;;;;;;0.00;100.00;94703.94;2098144;28;20078;-90
2021/12/18 01:38:28;;;;;;;29.35;20.60;;;;;;;-0.04;100.00;94701.16;2090093;28;20079;-88
2021/12/18 01:39:40;;;;;;;32.42;22.25;;;;;;;-0.01;100.00;94707.63;2091498;28;20024;-91
2021/12/18 01:40:42;;;;;;;31.77;21.02;;;;;;;-0.03;100.00;94707.97;2093100;28;20021;-90
2021/12/18 01:42:04;;;;;;;30.70;20.98;;;;;;;-0.09;100.00;94709.19;2090212;28;20060;-89
2021/12/18 01:51:16;;;;;;;33.88;23.23;;;;;;;0.02;100.00;94719.41;2103264;28;20118;-85
2021/12/18 01:53:00;;;;;;;32.03;21.23;;;;;;;0.03;100.00;94716.44;2098476;28;20051;-88
2021/12/18 01:54:02;;;;;;;30.90;20.90;;;;;;;0.03;100.00;94713.06;2098177;28;20135;-85
2021/12/18 01:55:04;;;;;;;36.95;22.60;;;;;;;0.09;100.00;94719.69;2090259;28;20070;-88
2021/12/18 01:56:06;;;;;;;33.55;23.30;;;;;;;0.08;100.00;94718.16;2098240;28;20025;-88
2021/12/18 01:57:07;;;;;;;36.63;22.80;;;;;;;0.12;100.00;94716.44;2090114;28;20025;-85
2021/12/18 01:58:09;;;;;;;36.38;23.70;;;;;;;0.14;100.00;94722.19;2089851;28;20495;-88
2021/12/18 01:59:10;;;;;;;33.47;21.52;;;;;;;0.14;100.00;94716.94;2090228;28;20036;-85
2021/12/18 02:00:27;;;;;;;37.53;23.52;;;;;;;0.10;100.00;94716.78;2089918;28;20075;-87
2021/12/18 02:01:31;;;;;;;35.10;22.63;;;;;;;0.17;100.00;94718.91;2086328;28;20425;-86
2021/12/18 02:02:35;;;;;;;33.75;21.55;;;;;;;0.20;100.00;94713.06;2090551;28;20024;-88
2021/12/18 02:03:39;;;;;;;34.05;22.05;;;;;;;0.15;100.00;94710.59;2098921;28;20032;-87
2021/12/18 02:04:40;;;;;;;41.78;23.88;;;;;;;0.25;100.00;94712.88;2106462;28;20024;-87
2021/12/18 02:05:41;;;;;;;38.50;24.02;;;;;;;0.25;100.00;94708.41;2089986;28;20129;-87
2021/12/18 02:06:42;;;;;;;38.83;24.85;;;;;;;0.29;100.00;94713.03;2089936;28;20856;-90
2021/12/18 02:09:53;;;;;;;;;;;;;;;0.20;100.00;94707.78;2149007;27;20465;-85
2021/12/18 02:11:00;;;;;;;;;;;;;;;0.13;100.00;94707.47;2131019;27;19915;-90
2021/12/18 02:12:01;;;;;;;37.67;19.77;;;;;;;0.10;100.00;94716.00;2115120;27;19954;-86
2021/12/18 02:14:36;;;;;;;36.65;22.48;;;;;;;0.13;100.00;94708.28;2119277;28;20031;-85
2021/12/18 02:20:10;;;;;;;36.72;22.38;;;;;;;0.11;100.00;94713.06;2124594;27;20019;-87
2021/12/18 02:21:28;;;;;;;32.83;21.08;;;;;;;0.08;100.00;94712.91;2129964;27;20041;-85
2021/12/18 02:22:32;;;;;;;55.03;22.05;;;;;;;0.14;100.00;94711.69;2122486;28;20110;-88
2021/12/18 02:23:41;;;;;;;75.65;24.20;;;;;;;0.05;100.00;94705.66;2116065;27;20028;-87
2021/12/18 02:24:49;;;;;;;124.25;23.00;;;;;;;-0.09;100.00;94701.31;2116597;27;20873;-88
2021/12/18 02:25:57;;;;;;;77.68;23.88;;;;;;;-0.05;100.00;94701.44;2123260;27;20411;-88
2021/12/18 02:27:03;;;;;;;59.05;23.85;;;;;;;-0.10;100.00;94702.38;2124260;27;20034;-85
2021/12/18 02:28:22;;;;;;;46.72;23.02;;;;;;;-0.08;100.00;94702.84;2130624;27;20557;-90
2021/12/18 02:29:31;;;;;;;71.13;22.48;;;;;;;-0.02;100.00;94698.97;2122189;28;20024;-87
2021/12/18 02:30:40;;;;;;;48.75;23.17;;;;;;;-0.02;100.00;94698.22;2116135;27;20024;-88
2021/12/18 02:31:48;;;;;;;64.55;21.30;;;;;;;0.29;100.00;94700.66;2123231;27;20034;-89
2021/12/18 02:32:56;;;;;;;77.85;23.33;;;;;;;0.09;100.00;94709.19;2123124;27;20104;-85
2021/12/18 02:34:04;;;;;;;65.20;22.50;;;;;;;0.16;100.00;94701.59;2115664;27;20028;-87
2021/12/18 02:35:15;;;;;;;59.50;21.70;;;;;;;0.05;100.00;94701.16;2114165;28;20024;-88
2021/12/18 02:36:24;;;;;;;40.78;22.10;;;;;;;0.03;100.00;94695.44;2107629;28;20024;-84
2021/12/18 02:37:28;;;;;;;89.43;23.20;;;;;;;0.08;100.00;94699.75;2107127;28;20025;-86
2021/12/18 02:41:25;;;;;;;67.85;24.17;;;;;;;-0.01;100.00;94697.13;2124452;27;20084;-91
2021/12/18 02:42:32;;;;;;;47.50;22.98;;;;;;;0.09;100.00;94694.19;2123764;27;20024;-89
2021/12/18 02:43:43;;;;;;;77.55;23.98;;;;;;;0.07;100.00;94690.31;2121797;27;20028;-88
2021/12/18 02:44:47;;;;;;;51.83;22.17;;;;;;;-0.01;100.00;94694.50;2107545;28;20020;-88
2021/12/18 02:45:59;;;;;;;52.47;24.02;;;;;;;0.00;100.00;94698.69;2122769;27;20020;-91
2021/12/18 02:47:03;;;;;;;42.03;23.50;;;;;;;0.06;100.00;94694.03;2129998;27;20074;-86
2021/12/18 02:48:07;;;;;;;50.92;23.00;;;;;;;-0.06;100.00;94695.41;2121985;27;20425;-89
2021/12/18 02:49:16;;;;;;;39.55;22.98;;;;;;;-0.01;100.00;94695.25;2113618;28;20024;-85
2021/12/18 02:50:21;;;;;;;40.63;23.02;;;;;;;0.06;100.00;94692.19;2115240;27;20090;-90
2021/12/18 02:51:24;;;;;;;48.33;23.05;;;;;;;0.04;100.00;94691.69;2114271;27;20385;-87
2021/12/18 02:52:31;;;;;;;41.45;22.27;;;;;;;-0.02;100.00;94691.09;2113680;27;20081;-87
2021/12/18 02:53:38;;;;;;;37.35;21.45;;;;;;;0.04;100.00;94699.59;2123467;27;20019;-89
2021/12/18 02:54:46;;;;;;;45.65;23.38;;;;;;;-0.01;100.00;94690.00;2122290;27;20092;-89
2021/12/18 02:55:54;;;;;;;71.25;23.48;;;;;;;0.24;100.00;94695.56;2122397;27;20027;-88
2021/12/18 02:56:55;;;;;;;60.90;23.85;;;;;;;0.14;100.00;94690.66;2131027;27;20023;-87
2021/12/18 02:57:56;;;;;;;66.20;23.58;;;;;;;0.20;100.00;94692.03;2121503;28;20499;-86
2021/12/18 02:59:04;;;;;;;58.03;23.38;;;;;;;0.09;100.00;94693.41;2130323;27;20082;-87
2021/12/18 03:00:06;;;;;;;45.25;23.65;;;;;;;0.08;100.00;94695.25;2131462;27;20377;-90
2021/12/18 03:01:16;;;;;;;55.90;23.90;;;;;;;0.17;100.00;94695.25;2121940;27;20483;-87
2021/12/18 03:02:24;;;;;;;36.47;22.55;;;;;;;0.11;100.00;94701.78;2122851;27;20108;-92
2021/12/18 03:03:36;;;;;;;39.33;22.42;;;;;;;0.17;100.00;94695.25;2122605;27;20027;-89
2021/12/18 03:04:46;;;;;;;38.90;21.30;;;;;;;0.16;100.00;94697.13;2114644;28;20020;-86
2021/12/18 03:06:03;;;;;;;35.25;21.17;;;;;;;0.14;100.00;94695.91;2114550;28;20030;-89
2021/12/18 03:07:10;;;;;;;36.58;21.17;;;;;;;0.13;100.00;94694.34;2109148;28;20469;-85
2021/12/18 03:08:18;;;;;;;34.72;20.95;;;;;;;0.04;100.00;94696.19;2112187;28;20568;-88
2021/12/18 03:19:42;;;;;;;;;;;;;;;0.07;100.00;94695.59;2116129;28;20003;-84
2021/12/18 03:24:42;;;;;;;35.00;20.98;;;;;;;-0.31;100.00;94696.97;2117407;27;20110;-86
2021/12/18 03:25:43;;;;;;;34.50;20.92;;;;;;;-0.12;100.00;94694.03;2118665;27;20023;-86
2021/12/18 03:26:46;;;;;;;33.70;21.70;;;;;;;-0.30;100.00;94692.47;2115929;27;20457;-87
2021/12/18 03:27:47;;;;;;;37.97;23.38;;;;;;;-0.27;100.00;94689.22;2107341;28;20028;-89
2021/12/18 03:28:48;;;;;;;39.90;21.75;;;;;;;-0.24;100.00;94695.72;2099149;28;20032;-87
2021/12/18 03:29:50;;;;;;;37.38;22.88;;;;;;;-0.11;100.00;94692.94;2098727;28;20036;-87
2021/12/18 03:30:51;;;;;;;39.53;23.27;;;;;;;-0.24;100.00;94693.88;2107614;28;20028;-88
2021/12/18 03:31:52;;;;;;;35.45;22.48;;;;;;;-0.33;100.00;94699.13;2098956;28;20032;-87
2021/12/18 03:32:58;;;;;;;37.78;22.27;;;;;;;-0.42;100.00;94685.19;2090458;28;20574;-88
2021/12/18 03:34:00;;;;;;;36.47;23.38;;;;;;;-0.48;100.00;94696.13;2099449;28;20025;-89
2021/12/18 03:35:02;;;;;;;42.03;24.15;;;;;;;-0.48;100.00;94694.31;2099095;28;20448;-87
2021/12/18 03:36:04;;;;;;;37.20;23.48;;;;;;;-0.31;100.00;94685.66;2098773;28;20025;-87
2021/12/18 03:37:09;;;;;;;36.65;22.73;;;;;;;-0.39;100.00;94694.34;2090865;28;20556;-88
2021/12/18 03:38:19;;;;;;;37.80;22.17;;;;;;;-0.45;100.00;94690.28;2091699;28;20477;-86
2021/12/18 03:39:27;;;;;;;38.90;23.15;;;;;;;-0.47;100.00;94697.72;2092964;28;20021;-86
2021/12/18 03:40:34;;;;;;;36.97;21.38;;;;;;;-0.42;100.00;94695.72;2100778;28;20028;-85
2021/12/18 03:41:36;;;;;;;34.00;21.63;;;;;;;-0.37;100.00;94692.94;2108009;28;20077;-87
2021/12/18 03:42:38;;;;;;;39.35;23.55;;;;;;;-0.49;100.00;94691.97;2098915;28;20020;-87
2021/12/18 03:43:52;;;;;;;36.95;22.65;;;;;;;-0.53;100.00;94689.19;2090878;28;20036;-87
2021/12/18 03:44:53;;;;;;;38.85;22.92;;;;;;;-0.42;100.00;94692.31;2094163;28;20048;-86
2021/12/18 03:45:54;;;;;;;38.20;23.08;;;;;;;-0.45;100.00;94690.28;2099627;28;20055;-87
2021/12/18 03:46:55;;;;;;;35.80;22.17;;;;;;;-0.52;100.00;94690.75;2107141;28;20069;-89
2021/12/18 03:47:56;;;;;;;35.03;23.02;;;;;;;-0.51;100.00;94690.44;2098783;28;20028;-88
2021/12/18 03:48:57;;;;;;;35.25;22.35;;;;;;;-0.36;100.00;94691.84;2098893;28;20020;-87
2021/12/18 03:50:01;;;;;;;39.08;23.02;;;;;;;-0.29;100.00;94688.78;2107109;28;20111;-91
2021/12/18 03:51:05;;;;;;;37.45;22.77;;;;;;;-0.18;100.00;94689.22;2104450;28;20385;-85
2021/12/18 03:52:07;;;;;;;37.03;22.88;;;;;;;-0.43;100.00;94688.91;2090887;28;20017;-88
2021/12/18 03:53:08;;;;;;;34.67;22.33;;;;;;;-0.42;100.00;94697.56;2099100;28;20028;-85
2021/12/18 03:54:09;;;;;;;38.78;23.40;;;;;;;-0.47;100.00;94693.22;2107179;28;20480;-84
2021/12/18 03:55:10;;;;;;;35.25;21.20;;;;;;;-0.49;100.00;94684.88;2106961;28;20028;-86
2021/12/18 03:56:11;;;;;;;35.22;22.13;;;;;;;-0.54;100.00;94692.91;2098690;28;20483;-90
2021/12/18 03:57:12;;;;;;;33.88;21.70;;;;;;;-0.45;100.00;94682.41;2098462;28;20024;-87
2021/12/18 03:58:14;;;;;;;33.60;21.63;;;;;;;-0.46;100.00;94679.00;2090270;28;20490;-89
2021/12/18 03:59:15;;;;;;;33.67;21.48;;;;;;;-0.45;100.00;94688.44;2098817;28;20404;-89
2021/12/18 04:00:17;;;;;;;36.28;22.10;;;;;;;-0.49;100.00;94684.88;2107076;28;20020;-91
2021/12/18 04:01:20;;;;;;;34.38;21.73;;;;;;;-0.57;100.00;94688.25;2098634;28;20383;-87
2021/12/18 04:02:21;;;;;;;35.60;21.60;;;;;;;-0.51;100.00;94687.81;2099227;28;20095;-88
2021/12/18 04:03:24;;;;;;;38.65;22.38;;;;;;;-0.54;100.00;94687.66;2106838;28;20051;-86
2021/12/18 04:04:26;;;;;;;36.50;22.52;;;;;;;-0.61;100.00;94693.34;2099107;28;20020;-85
2021/12/18 04:05:27;;;;;;;34.90;22.50;;;;;;;-0.49;100.00;94684.09;2098628;28;20020;-86
2021/12/18 04:06:28;;;;;;;34.65;22.52;;;;;;;-0.50;100.00;94683.31;2098751;28;20020;-87
2021/12/18 04:07:29;;;;;;;35.58;21.38;;;;;;;-0.42;100.00;94685.19;2090154;28;20529;-84
2021/12/18 04:08:30;;;;;;;34.97;21.85;;;;;;;-0.62;100.00;94685.78;2091442;28;20025;-86
2021/12/18 04:09:31;;;;;;;35.67;21.52;;;;;;;-0.62;100.00;94683.16;2089997;28;20132;-84
2021/12/18 04:10:32;;;;;;;36.25;22.52;;;;;;;-0.51;100.00;94690.44;2098707;28;20035;-87
2021/12/18 04:11:33;;;;;;;35.40;22.80;;;;;;;-0.49;100.00;94684.88;2106865;28;20107;-86
2021/12/18 04:12:34;;;;;;;35.05;21.88;;;;;;;-0.58;100.00;94684.84;2115123;28;20455;-86
2021/12/18 04:13:44;;;;;;;35.38;21.88;;;;;;;-0.50;100.00;94685.94;2100345;28;20470;-86
2021/12/18 04:14:46;;;;;;;35.95;21.42;;;;;;;-0.47;100.00;94687.22;2108181;28;20016;-86
2021/12/18 04:15:50;;;;;;;33.33;20.02;;;;;;;-0.52;100.00;94685.50;2099034;28;20071;-86
2021/12/18 04:16:51;;;;;;;32.65;21.27;;;;;;;-0.41;100.00;94697.25;2107892;28;20020;-88
2021/12/18 04:17:52;;;;;;;34.78;21.25;;;;;;;-0.59;100.00;94690.41;2115580;28;20027;-87
2021/12/18 04:18:53;;;;;;;36.30;21.73;;;;;;;-0.54;100.00;94691.03;2109940;28;20116;-85
2021/12/18 04:19:54;;;;;;;32.92;20.30;;;;;;;-0.58;100.00;94687.47;2101267;28;20393;-83
2021/12/18 04:20:55;;;;;;;35.25;21.70;;;;;;;-0.69;100.00;94686.22;2102479;28;20024;-87
2021/12/18 04:21:56;;;;;;;34.17;20.90;;;;;;;-0.69;100.00;94693.34;2097275;28;20383;-91
2021/12/18 04:22:57;;;;;;;35.20;21.90;;;;;;;-0.80;100.00;94693.59;2107530;28;20031;-86
2021/12/18 04:23:59;;;;;;;32.88;20.08;;;;;;;-0.78;100.00;94688.84;2104559;28;20031;-89
2021/12/18 04:25:01;;;;;;;35.70;21.77;;;;;;;-0.77;100.00;94692.22;2102924;28;20054;-88
2021/12/18 04:26:03;;;;;;;38.67;22.80;;;;;;;-0.78;100.00;94691.47;2092157;28;20036;-85
2021/12/18 04:27:06;;;;;;;35.97;22.00;;;;;;;-0.79;100.00;94686.50;2090449;28;20120;-89
2021/12/18 04:28:11;;;;;;;34.55;21.05;;;;;;;-0.77;100.00;94689.59;2098632;28;20031;-86
2021/12/18 04:29:12;;;;;;;37.30;21.70;;;;;;;-0.81;100.00;94696.53;2099219;28;20028;-87
2021/12/18 04:30:13;;;;;;;36.25;21.65;;;;;;;-0.78;100.00;94688.84;2098086;28;20050;-89
2021/12/18 04:31:14;;;;;;;35.38;21.33;;;;;;;-0.80;100.00;94685.72;2090018;28;20024;-86
2021/12/18 04:32:15;;;;;;;40.28;22.92;;;;;;;-0.80;100.00;94692.81;2113566;28;20024;-85
2021/12/18 04:33:16;;;;;;;33.42;20.27;;;;;;;-0.78;100.00;94696.72;2114827;28;20016;-90
2021/12/18 04:34:17;;;;;;;34.58;19.48;;;;;;;-0.67;100.00;94694.56;2098302;28;20539;-85
2021/12/18 04:35:18;;;;;;;37.08;21.85;;;;;;;-0.61;100.00;94688.09;2115152;28;20511;-88
2021/12/18 04:36:21;;;;;;;33.40;20.90;;;;;;;-0.54;100.00;94692.91;2123473;27;20023;-86
2021/12/18 04:37:23;;;;;;;32.47;19.83;;;;;;;-0.66;100.00;94688.25;2114728;28;20134;-86
2021/12/18 04:38:24;;;;;;;38.80;22.20;;;;;;;-0.71;100.00;94691.00;2102833;27;20088;-86
2021/12/18 04:39:26;;;;;;;36.28;24.17;;;;;;;-0.63;100.00;94692.88;2106727;28;20020;-87
2021/12/18 04:40:28;;;;;;;37.63;21.08;;;;;;;-0.66;100.00;94688.25;2095662;28;20358;-84
2021/12/18 04:41:49;;;;;;;49.70;22.13;;;;;;;-0.62;100.00;94688.41;2098294;28;20048;-89
2021/12/18 04:42:57;;;;;;;56.67;20.65;;;;;;;-0.74;100.00;94688.22;2095521;28;20053;-88
2021/12/18 04:43:58;;;;;;;41.92;20.30;;;;;;;-0.65;100.00;94689.78;2091841;28;20021;-85
2021/12/18 04:44:59;;;;;;;37.88;19.73;;;;;;;-0.72;100.00;94692.09;2091054;28;20701;-90
2021/12/18 04:46:00;;;;;;;39.75;20.52;;;;;;;-0.55;100.00;94694.75;2098416;28;20565;-84
2021/12/18 04:47:01;;;;;;;39.72;20.75;;;;;;;-0.65;100.00;94689.03;2098443;28;20078;-85
2021/12/18 04:48:03;;;;;;;33.28;19.45;;;;;;;-0.43;100.00;94682.88;2098153;28;20079;-87
2021/12/18 04:49:10;;;;;;;35.22;20.08;;;;;;;-0.68;100.00;94690.41;2106723;28;20028;-86
2021/12/18 04:50:11;;;;;;;47.85;20.27;;;;;;;-0.77;100.00;94687.75;2114882;28;20027;-87
2021/12/18 04:51:12;;;;;;;37.15;20.00;;;;;;;-0.70;100.00;94686.53;2106555;28;20016;-91
2021/12/18 04:52:13;;;;;;;36.97;19.45;;;;;;;-0.89;100.00;94690.19;2098209;28;20051;-87
2021/12/18 04:53:17;;;;;;;41.67;20.20;;;;;;;-0.90;100.00;94687.88;2106749;28;20480;-87
2021/12/18 04:54:18;;;;;;;43.60;19.65;;;;;;;-0.89;100.00;94692.03;2106800;28;20024;-85
2021/12/18 04:55:20;;;;;;;52.53;19.42;;;;;;;-0.85;100.00;94692.97;2098367;28;20029;-86
2021/12/18 04:56:30;;;;;;;46.97;20.55;;;;;;;-0.76;100.00;94691.16;2098018;28;20469;-91
2021/12/18 04:57:32;;;;;;;40.53;18.13;;;;;;;-0.84;100.00;94690.03;2105112;28;20028;-85
2021/12/18 04:58:42;;;;;;;36.35;19.40;;;;;;;-0.79;100.00;94684.66;2106531;28;20020;-85
2021/12/18 04:59:46;;;;;;;50.42;17.52;;;;;;;-0.85;100.00;94685.88;2107717;28;20833;-88
2021/12/18 05:00:54;;;;;;;65.43;18.13;;;;;;;-1.03;100.00;94686.91;2098942;28;20082;-84
2021/12/18 05:01:56;;;;;;;35.47;18.50;;;;;;;-1.01;100.00;94676.84;2095216;28;20067;-87
2021/12/18 05:03:04;;;;;;;38.00;18.52;;;;;;;-0.77;100.00;94685.13;2089914;28;20059;-88
2021/12/18 05:04:09;;;;;;;46.83;18.05;;;;;;;-0.97;100.00;94682.28;2099941;28;20115;-88
2021/12/18 05:05:13;;;;;;;50.35;18.77;;;;;;;-1.24;100.00;94686.66;2106981;28;20485;-86
2021/12/18 05:06:14;;;;;;;44.10;16.40;;;;;;;-1.12;100.00;94681.63;2114662;28;20031;-87
2021/12/18 05:07:15;;;;;;;38.47;16.83;;;;;;;-1.23;100.00;94682.94;2106232;28;20020;-92
2021/12/18 05:08:16;;;;;;;27.60;16.85;;;;;;;-1.08;100.00;94679.94;2098022;28;20032;-85
2021/12/18 05:09:17;;;;;;;41.22;17.73;;;;;;;-0.96;100.00;94681.22;2105543;28;20491;-86
2021/12/18 05:10:18;;;;;;;61.30;17.77;;;;;;;-1.23;100.00;94684.78;2106227;28;20118;-87
2021/12/18 05:11:19;;;;;;;36.08;18.58;;;;;;;-1.25;100.00;94682.47;2106409;28;20477;-86
2021/12/18 05:12:20;;;;;;;42.33;18.55;;;;;;;-1.28;100.00;94675.97;2106342;28;20020;-87
2021/12/18 05:13:21;;;;;;;73.38;17.52;;;;;;;-1.38;100.00;94678.88;2106400;28;20032;-85
2021/12/18 05:14:24;;;;;;;52.40;18.58;;;;;;;-1.29;100.00;94678.91;2106128;28;20032;-86
2021/12/18 05:15:26;;;;;;;48.75;17.52;;;;;;;-1.17;100.00;94676.50;2099350;27;20028;-86
2021/12/18 05:16:30;;;;;;;40.45;17.83;;;;;;;-1.16;100.00;94679.91;2101577;28;20039;-87
2021/12/18 05:17:42;;;;;;;34.72;17.27;;;;;;;-1.36;100.00;94673.31;2090733;28;20028;-87
2021/12/18 05:18:49;;;;;;;28.58;16.45;;;;;;;-1.32;100.00;94680.31;2095928;28;20048;-85
2021/12/18 05:19:50;;;;;;;33.97;17.15;;;;;;;-1.25;100.00;94672.00;2099031;28;20037;-87
2021/12/18 05:20:51;;;;;;;31.77;17.02;;;;;;;-1.17;100.00;94668.63;2099057;28;20028;-90
2021/12/18 05:21:52;;;;;;;27.58;16.40;;;;;;;-1.21;100.00;94669.53;2097390;28;20528;-87
2021/12/18 05:22:53;;;;;;;28.52;17.00;;;;;;;-1.15;100.00;94668.31;2098029;28;20032;-88
2021/12/18 05:23:54;;;;;;;26.67;16.25;;;;;;;-1.02;100.00;94670.84;2097973;28;20111;-87
2021/12/18 05:24:55;;;;;;;27.70;16.80;;;;;;;-0.97;100.00;94667.31;2097939;28;20025;-85
2021/12/18 05:25:56;;;;;;;27.90;16.67;;;;;;;-1.04;100.00;94672.22;2106225;28;20497;-86
2021/12/18 05:26:58;;;;;;;29.60;16.98;;;;;;;-0.95;100.00;94665.16;2106056;28;20461;-89
2021/12/18 05:27:59;;;;;;;39.22;16.45;;;;;;;-0.99;100.00;94666.84;2098025;28;20020;-87
2021/12/18 05:29:00;;;;;;;30.63;16.77;;;;;;;-1.09;100.00;94667.91;2114608;28;20023;-88
2021/12/18 05:30:07;;;;;;;28.70;16.20;;;;;;;-1.03;100.00;94671.91;2119507;27;20259;-87
2021/12/18 05:31:09;;;;;;;30.83;17.40;;;;;;;-1.04;100.00;94670.38;2104884;28;20027;-85
2021/12/18 05:32:10;;;;;;;29.35;17.33;;;;;;;-1.10;100.00;94668.19;2096448;28;20058;-86
2021/12/18 05:33:12;;;;;;;50.88;17.23;;;;;;;-1.22;100.00;94660.13;2105311;28;20016;-89
2021/12/18 05:34:20;;;;;;;34.80;17.55;;;;;;;-1.17;100.00;94671.25;2104750;28;20093;-87
2021/12/18 05:35:21;;;;;;;26.50;15.15;;;;;;;-1.03;100.00;94671.16;2104534;28;20063;-86